Time;durP1;ratioP1;P1;durP2;ratioP2;P2;SDS_P1;SDS_P2;PMS_P1;PMS_P2;Temp;Humidity;BMP_temperature;BMP_pressure;BME280_temperature;BME280_humidity;BME280_pressure;Samples;Min_cycle;Max_cycle;Signal;HPM_P1;HPM_P2
2021/03/13 00:00:50;;;;;;;4.30;2.40;;;5.80;99.90;;;;;;5040338;28;20687;-69
2021/03/13 00:03:16;;;;;;;2.70;1.93;;;5.80;99.90;;;;;;5027728;28;20857;-70
2021/03/13 00:05:45;;;;;;;2.00;1.70;;;5.80;99.90;;;;;;5002056;28;20472;-70
2021/03/13 00:08:12;;;;;;;4.33;2.30;;;5.80;99.90;;;;;;5025465;28;20511;-70
2021/03/13 00:10:39;;;;;;;2.23;1.90;;;5.80;99.90;;;;;;5025306;28;20456;-70
2021/03/13 00:13:05;;;;;;;1.50;1.40;;;5.80;99.90;;;;;;5017682;28;20451;-71
2021/03/13 00:15:32;;;;;;;4.73;1.83;;;5.80;99.90;;;;;;5012305;28;20445;-70
2021/03/13 00:18:00;;;;;;;4.60;1.60;;;5.80;99.90;;;;;;5023804;28;20451;-70
2021/03/13 00:20:27;;;;;;;4.37;1.80;;;5.80;99.90;;;;;;5005060;28;20502;-70
2021/03/13 00:22:54;;;;;;;2.30;1.90;;;5.80;99.90;;;;;;5037288;28;20494;-70
2021/03/13 00:25:21;;;;;;;1.83;1.73;;;5.90;99.90;;;;;;5003989;28;20454;-70
2021/03/13 00:27:47;;;;;;;2.03;1.83;;;5.90;99.90;;;;;;5014466;28;20460;-70
2021/03/13 00:30:16;;;;;;;2.50;2.30;;;5.90;99.90;;;;;;5028893;28;20456;-70
2021/03/13 00:32:43;;;;;;;2.80;2.03;;;5.90;99.90;;;;;;5019903;28;20887;-69
2021/03/13 00:35:09;;;;;;;2.53;1.33;;;5.80;99.90;;;;;;5045377;28;20462;-69
2021/03/13 00:37:35;;;;;;;1.83;1.60;;;5.90;99.90;;;;;;5019871;28;20471;-70
2021/03/13 00:40:03;;;;;;;2.33;1.67;;;5.90;99.90;;;;;;5013303;28;20456;-70
2021/03/13 00:42:29;;;;;;;2.37;1.53;;;5.90;99.90;;;;;;5031554;28;20821;-70
2021/03/13 00:44:54;;;;;;;1.87;1.73;;;5.90;99.90;;;;;;4997004;28;20455;-69
2021/03/13 00:47:26;;;;;;;1.53;1.43;;;5.90;99.90;;;;;;4996471;28;20228;-67
2021/03/13 00:49:52;;;;;;;2.00;1.40;;;5.90;99.90;;;;;;4997237;28;20283;-68
2021/03/13 00:52:18;;;;;;;2.50;2.30;;;5.90;99.90;;;;;;5013254;28;20451;-70
2021/03/13 00:54:44;;;;;;;2.70;1.30;;;5.90;99.90;;;;;;5010215;28;20222;-70
2021/03/13 00:57:09;;;;;;;1.67;1.47;;;5.90;99.90;;;;;;5014268;28;20220;-70
2021/03/13 00:59:35;;;;;;;1.90;1.20;;;5.90;99.90;;;;;;5003843;28;20228;-69
2021/03/13 01:02:01;;;;;;;2.60;1.57;;;6.00;99.90;;;;;;5029552;28;20649;-68
2021/03/13 01:04:26;;;;;;;1.60;1.30;;;6.00;99.90;;;;;;5046613;28;20612;-70
2021/03/13 01:06:52;;;;;;;1.60;1.50;;;6.00;99.90;;;;;;5029617;28;20229;-70
2021/03/13 01:09:18;;;;;;;1.10;1.00;;;6.00;99.90;;;;;;4998705;28;20449;-70
2021/03/13 01:11:44;;;;;;;1.60;1.10;;;6.00;99.90;;;;;;5025333;28;20236;-70
2021/03/13 01:14:10;;;;;;;1.50;1.40;;;6.00;99.90;;;;;;5010570;28;20245;-70
2021/03/13 01:16:42;;;;;;;1.70;1.20;;;6.00;99.90;;;;;;4999109;28;20598;-70
2021/03/13 01:19:08;;;;;;;1.40;1.23;;;6.00;99.90;;;;;;5027483;28;20531;-69
2021/03/13 01:21:34;;;;;;;1.50;0.93;;;6.00;99.90;;;;;;5004884;28;20222;-68
2021/03/13 01:24:03;;;;;;;1.27;1.17;;;6.00;99.90;;;;;;4994380;28;20958;-70
2021/03/13 01:26:35;;;;;;;1.90;1.13;;;6.10;99.90;;;;;;5028247;28;20475;-70
2021/03/13 01:29:04;;;;;;;1.23;1.13;;;6.10;99.90;;;;;;5006447;28;20456;-69
2021/03/13 01:31:37;;;;;;;0.70;0.70;;;6.10;99.90;;;;;;5008830;28;20465;-70
2021/03/13 01:34:04;;;;;;;1.13;1.07;;;6.10;99.90;;;;;;5000500;28;20459;-69
2021/03/13 01:36:30;;;;;;;0.87;0.87;;;6.20;99.90;;;;;;4995353;28;20514;-69
2021/03/13 01:38:56;;;;;;;1.33;1.03;;;6.20;99.90;;;;;;5007170;28;20224;-70
2021/03/13 01:41:23;;;;;;;0.90;0.90;;;6.20;99.90;;;;;;5019396;28;20451;-69
2021/03/13 01:43:49;;;;;;;0.83;0.83;;;6.20;99.90;;;;;;4982564;28;20457;-70
2021/03/13 01:46:47;;;;;;;1.13;1.03;;;6.20;99.90;;;;;;4997008;28;20700;-70
2021/03/13 01:49:26;;;;;;;1.10;1.00;;;6.20;99.90;;;;;;5033687;28;20443;-69
2021/03/13 01:52:27;;;;;;;1.60;1.10;;;6.20;99.90;;;;;;5027325;28;20459;-69
2021/03/13 01:54:55;;;;;;;0.90;0.63;;;6.30;99.90;;;;;;5049133;28;20554;-70
2021/03/13 01:57:20;;;;;;;1.80;1.20;;;6.30;99.90;;;;;;5049647;28;20541;-69
2021/03/13 01:59:49;;;;;;;1.33;0.90;;;6.30;99.90;;;;;;4989062;28;20455;-69
2021/03/13 02:02:16;;;;;;;0.80;0.80;;;6.30;99.90;;;;;;5011998;28;20471;-68
2021/03/13 02:04:42;;;;;;;3.90;1.00;;;6.30;99.90;;;;;;5028751;28;20213;-69
2021/03/13 02:07:36;;;;;;;1.17;1.07;;;6.30;99.90;;;;;;5004653;28;20471;-69
2021/03/13 02:10:22;;;;;;;1.53;1.40;;;6.30;99.90;;;;;;5048431;28;20455;-70
2021/03/13 02:13:04;;;;;;;3.50;1.40;;;6.30;99.90;;;;;;5035652;28;20479;-71
2021/03/13 02:15:39;;;;;;;1.87;1.20;;;6.30;99.90;;;;;;5012002;28;20456;-70
2021/03/13 02:18:37;;;;;;;2.27;1.30;;;6.30;99.90;;;;;;5028523;28;20530;-70
2021/03/13 02:21:30;;;;;;;2.03;1.37;;;6.30;99.90;;;;;;5031338;28;20451;-70
2021/03/13 02:24:31;;;;;;;0.70;0.60;;;6.40;99.90;;;;;;5032576;28;20488;-68
2021/03/13 02:27:04;;;;;;;1.07;0.87;;;6.40;99.90;;;;;;5030248;28;21093;-70
2021/03/13 02:29:50;;;;;;;1.17;0.87;;;6.40;99.90;;;;;;5028267;28;20832;-70
2021/03/13 02:32:42;;;;;;;0.60;0.60;;;6.40;99.90;;;;;;5012321;28;20974;-69
2021/03/13 02:35:21;;;;;;;0.73;0.73;;;6.40;99.90;;;;;;5036052;28;20466;-70
2021/03/13 02:37:54;;;;;;;0.80;0.80;;;6.50;99.90;;;;;;5028185;28;20480;-70
2021/03/13 02:40:27;;;;;;;0.63;0.63;;;6.50;99.90;;;;;;4996680;28;20448;-71
2021/03/13 02:43:00;;;;;;;0.63;0.63;;;6.50;99.90;;;;;;5028511;28;20470;-70
2021/03/13 02:45:29;;;;;;;1.00;0.70;;;6.50;99.90;;;;;;5028249;28;20962;-70
2021/03/13 02:47:57;;;;;;;1.67;0.97;;;6.50;99.90;;;;;;5011724;28;20522;-70
2021/03/13 02:50:25;;;;;;;0.70;0.70;;;6.50;99.90;;;;;;5011533;28;21061;-69
2021/03/13 02:53:00;;;;;;;1.10;0.73;;;6.50;99.90;;;;;;4997659;28;21017;-69
2021/03/13 02:55:27;;;;;;;0.90;0.70;;;6.50;99.90;;;;;;5036370;28;20911;-69
2021/03/13 02:57:56;;;;;;;0.70;0.60;;;6.50;99.90;;;;;;5026489;28;20454;-68
2021/03/13 03:00:25;;;;;;;0.63;0.50;;;6.50;99.90;;;;;;5031323;28;20471;-69
2021/03/13 03:02:55;;;;;;;0.87;0.80;;;6.50;99.90;;;;;;5048216;28;20534;-69
2021/03/13 03:05:26;;;;;;;1.43;0.80;;;6.60;99.90;;;;;;5047548;28;20447;-69
2021/03/13 03:07:54;;;;;;;0.70;0.60;;;6.50;99.90;;;;;;5015335;28;20473;-69
2021/03/13 03:10:25;;;;;;;0.90;0.77;;;6.50;99.90;;;;;;5014732;28;20442;-69
2021/03/13 03:12:51;;;;;;;1.30;1.20;;;6.60;99.90;;;;;;5017874;28;20452;-69
2021/03/13 03:15:22;;;;;;;1.33;0.80;;;6.60;99.90;;;;;;4994948;28;20436;-68
2021/03/13 03:17:48;;;;;;;0.60;0.60;;;6.60;99.90;;;;;;4995417;28;20934;-69
2021/03/13 03:20:15;;;;;;;0.97;0.83;;;6.60;99.90;;;;;;4994707;28;20452;-69
2021/03/13 03:22:42;;;;;;;0.80;0.80;;;6.60;99.90;;;;;;5012347;28;20476;-69
2021/03/13 03:25:14;;;;;;;0.90;0.90;;;6.60;99.90;;;;;;5010705;28;20455;-69
2021/03/13 03:27:50;;;;;;;0.93;0.70;;;6.60;99.90;;;;;;5006661;28;20550;-68
2021/03/13 03:30:24;;;;;;;0.67;0.67;;;6.60;99.90;;;;;;5016825;28;20439;-69
2021/03/13 03:32:51;;;;;;;0.60;0.60;;;6.70;99.90;;;;;;5031625;28;20471;-69
2021/03/13 03:35:18;;;;;;;0.60;0.47;;;6.60;99.90;;;;;;4995205;28;20457;-70
2021/03/13 03:37:45;;;;;;;1.60;0.80;;;6.60;99.90;;;;;;5010814;28;20483;-69
2021/03/13 03:40:13;;;;;;;1.10;1.00;;;6.60;99.90;;;;;;5010162;28;20825;-70
2021/03/13 03:42:45;;;;;;;1.00;0.90;;;6.70;99.90;;;;;;5027034;28;20467;-70
2021/03/13 03:45:14;;;;;;;0.60;0.60;;;6.60;99.90;;;;;;5013071;28;20482;-70
2021/03/13 03:47:53;;;;;;;0.60;0.60;;;6.70;99.90;;;;;;5015379;28;20460;-70
2021/03/13 03:50:22;;;;;;;0.70;0.70;;;6.70;99.90;;;;;;5018761;28;20469;-69
2021/03/13 03:53:02;;;;;;;1.67;0.60;;;6.70;99.90;;;;;;5016781;28;20452;-67
2021/03/13 03:55:29;;;;;;;2.63;0.77;;;6.70;99.90;;;;;;5015422;28;20969;-70
2021/03/13 03:57:56;;;;;;;0.77;0.60;;;6.70;99.90;;;;;;5033682;28;20463;-68
2021/03/13 04:00:23;;;;;;;0.80;0.60;;;6.70;99.90;;;;;;5033310;28;20450;-69
2021/03/13 04:02:49;;;;;;;4.33;0.63;;;6.70;99.90;;;;;;5033206;28;20474;-68
2021/03/13 04:05:18;;;;;;;2.93;0.60;;;6.80;99.90;;;;;;5033608;28;20455;-69
2021/03/13 04:07:44;;;;;;;4.23;0.80;;;6.80;99.90;;;;;;5050674;28;20470;-68
2021/03/13 04:10:12;;;;;;;3.37;0.83;;;6.70;99.90;;;;;;5049124;28;20505;-68
2021/03/13 04:12:40;;;;;;;0.63;0.63;;;6.80;99.90;;;;;;4994469;28;20524;-68
2021/03/13 04:15:10;;;;;;;1.37;0.83;;;6.80;99.90;;;;;;5007787;28;20455;-68
2021/03/13 04:17:37;;;;;;;0.70;0.40;;;6.80;99.90;;;;;;5033289;28;20516;-70
2021/03/13 04:20:05;;;;;;;0.50;0.50;;;6.80;99.90;;;;;;5032711;28;21008;-69
2021/03/13 04:22:32;;;;;;;4.63;1.87;;;6.80;99.90;;;;;;5014704;28;20451;-68
2021/03/13 04:25:01;;;;;;;3.33;1.77;;;6.80;99.90;;;;;;5005271;28;21005;-69
2021/03/13 04:27:27;;;;;;;2.00;1.00;;;6.80;99.90;;;;;;5038838;28;20459;-68
2021/03/13 04:29:52;;;;;;;2.33;0.57;;;6.80;99.90;;;;;;5033383;28;20466;-69
2021/03/13 04:32:20;;;;;;;0.80;0.70;;;6.90;99.90;;;;;;5003299;28;20225;-68
2021/03/13 04:34:47;;;;;;;0.53;0.53;;;6.90;99.90;;;;;;4997087;28;20228;-68
2021/03/13 04:37:13;;;;;;;1.00;0.80;;;6.90;99.90;;;;;;5039367;28;20460;-68
2021/03/13 04:39:41;;;;;;;0.70;0.60;;;6.90;99.90;;;;;;5012331;28;20468;-68
2021/03/13 04:42:08;;;;;;;0.80;0.80;;;6.90;99.90;;;;;;5006344;28;20469;-69
2021/03/13 04:44:34;;;;;;;0.70;0.70;;;6.90;99.90;;;;;;5033358;28;20452;-68
2021/03/13 04:47:01;;;;;;;1.00;0.70;;;6.90;99.90;;;;;;4995429;28;20476;-69
2021/03/13 04:49:27;;;;;;;0.57;0.50;;;6.90;99.90;;;;;;5028631;28;21076;-69
2021/03/13 04:51:59;;;;;;;0.80;0.80;;;6.90;99.90;;;;;;5007792;28;20472;-68
2021/03/13 04:54:25;;;;;;;0.57;0.53;;;7.00;99.90;;;;;;5023424;28;20462;-68
2021/03/13 04:56:52;;;;;;;0.70;0.70;;;7.00;99.90;;;;;;5011360;28;20482;-69
2021/03/13 04:59:18;;;;;;;0.60;0.53;;;7.00;99.90;;;;;;5011308;28;20452;-69
2021/03/13 05:01:44;;;;;;;5.80;1.63;;;7.00;99.90;;;;;;5023664;28;20476;-69
2021/03/13 05:04:09;;;;;;;1.10;0.73;;;7.00;99.90;;;;;;5028540;28;20217;-69
2021/03/13 05:06:35;;;;;;;1.73;0.93;;;7.00;99.90;;;;;;5011749;28;20232;-69
2021/03/13 05:09:01;;;;;;;1.00;0.90;;;7.00;99.90;;;;;;4979050;28;20263;-68
2021/03/13 05:11:26;;;;;;;0.90;0.70;;;7.00;99.90;;;;;;5026565;28;20221;-69
2021/03/13 05:13:52;;;;;;;4.00;0.87;;;7.00;99.90;;;;;;5006734;28;20283;-69
2021/03/13 05:16:18;;;;;;;0.90;0.87;;;7.00;99.90;;;;;;5028133;28;20236;-68
2021/03/13 05:18:43;;;;;;;2.23;0.80;;;7.00;99.90;;;;;;4979337;28;20289;-69
2021/03/13 05:21:09;;;;;;;1.43;1.00;;;7.10;99.90;;;;;;4991650;28;20775;-69
2021/03/13 05:23:34;;;;;;;1.00;0.73;;;7.00;99.90;;;;;;5023558;28;20217;-69
2021/03/13 05:26:00;;;;;;;1.60;0.90;;;7.10;99.90;;;;;;5003069;28;20270;-68
2021/03/13 05:28:26;;;;;;;2.53;1.00;;;7.10;99.90;;;;;;5029040;28;20247;-69
2021/03/13 05:30:51;;;;;;;0.90;0.90;;;7.10;99.90;;;;;;5014600;28;20249;-68
2021/03/13 05:33:17;;;;;;;1.10;0.90;;;7.10;99.90;;;;;;4994563;28;20443;-68
2021/03/13 05:35:43;;;;;;;0.77;0.60;;;7.10;99.90;;;;;;4995926;28;20235;-70
2021/03/13 05:38:09;;;;;;;1.20;0.83;;;7.10;99.90;;;;;;4994303;28;20232;-68
2021/03/13 05:40:34;;;;;;;1.53;1.10;;;7.10;99.90;;;;;;5011110;28;20224;-70
2021/03/13 05:43:00;;;;;;;1.40;0.93;;;7.10;99.90;;;;;;5004628;28;20312;-71
2021/03/13 05:45:26;;;;;;;1.80;0.93;;;7.10;99.90;;;;;;4996018;28;20240;-68
2021/03/13 05:47:54;;;;;;;1.27;0.80;;;7.20;99.90;;;;;;5027560;28;20538;-70
2021/03/13 05:50:21;;;;;;;0.60;0.60;;;7.20;99.90;;;;;;5024586;28;20221;-70
2021/03/13 05:52:54;;;;;;;0.93;0.60;;;7.20;99.90;;;;;;5008668;28;20451;-70
2021/03/13 05:55:20;;;;;;;1.03;0.97;;;7.20;99.90;;;;;;5006455;28;20472;-70
2021/03/13 05:57:49;;;;;;;1.30;0.83;;;7.20;99.90;;;;;;4978233;28;21006;-70
2021/03/13 06:00:15;;;;;;;0.70;0.60;;;7.20;99.90;;;;;;4993944;28;20469;-70
2021/03/13 06:02:42;;;;;;;4.00;0.70;;;7.20;99.90;;;;;;4994813;28;20460;-70
2021/03/13 06:05:08;;;;;;;0.50;0.47;;;7.20;99.90;;;;;;4994628;28;20448;-70
2021/03/13 06:07:34;;;;;;;0.50;0.50;;;7.20;99.90;;;;;;5011927;28;20487;-70
2021/03/13 06:10:00;;;;;;;0.60;0.60;;;7.20;99.90;;;;;;5011677;28;20618;-71
2021/03/13 06:12:26;;;;;;;1.13;0.50;;;7.20;99.90;;;;;;5006057;28;20227;-70
2021/03/13 06:14:54;;;;;;;0.60;0.60;;;7.20;99.90;;;;;;5035152;28;20455;-70
2021/03/13 06:17:25;;;;;;;0.80;0.70;;;7.20;99.90;;;;;;5030526;28;20438;-68
2021/03/13 06:19:57;;;;;;;0.70;0.70;;;7.20;99.90;;;;;;5032556;28;20458;-71
2021/03/13 06:22:43;;;;;;;0.60;0.57;;;7.20;99.90;;;;;;5040562;28;20547;-70
2021/03/13 06:25:18;;;;;;;2.83;0.80;;;7.20;99.90;;;;;;5037835;28;20549;-70
2021/03/13 06:28:05;;;;;;;0.90;0.67;;;7.20;99.90;;;;;;5039064;28;20474;-70
2021/03/13 06:30:38;;;;;;;0.50;0.50;;;7.30;99.90;;;;;;5046947;28;20456;-69
2021/03/13 06:33:30;;;;;;;4.10;0.87;;;7.20;99.90;;;;;;5031420;28;20474;-71
2021/03/13 06:36:01;;;;;;;0.63;0.50;;;7.30;99.90;;;;;;5047527;28;20455;-69
2021/03/13 06:38:29;;;;;;;0.50;0.37;;;7.20;99.90;;;;;;5027380;28;20979;-70
2021/03/13 06:40:58;;;;;;;0.50;0.50;;;7.20;99.90;;;;;;5027539;28;20479;-70
2021/03/13 06:43:31;;;;;;;1.60;0.73;;;7.30;99.90;;;;;;5010890;28;20472;-69
2021/03/13 06:45:58;;;;;;;0.80;0.73;;;7.30;99.90;;;;;;5011206;28;20981;-70
2021/03/13 06:48:40;;;;;;;0.63;0.63;;;7.30;99.90;;;;;;5010580;28;20972;-70
2021/03/13 06:51:16;;;;;;;0.80;0.57;;;7.30;99.90;;;;;;5026871;28;20528;-71
2021/03/13 06:53:42;;;;;;;0.60;0.53;;;7.30;99.90;;;;;;5027800;28;20451;-70
2021/03/13 06:56:12;;;;;;;1.40;0.60;;;7.30;99.90;;;;;;5011259;28;20480;-70
2021/03/13 06:58:38;;;;;;;0.80;0.70;;;7.30;99.90;;;;;;5011446;28;20452;-70
2021/03/13 07:01:06;;;;;;;6.77;2.13;;;7.30;99.90;;;;;;5026767;28;20969;-70
2021/03/13 07:03:32;;;;;;;6.40;3.07;;;7.30;99.90;;;;;;4995066;28;20459;-70
2021/03/13 07:05:58;;;;;;;3.77;2.17;;;7.30;99.90;;;;;;5010893;28;20475;-70
2021/03/13 07:08:28;;;;;;;6.40;2.70;;;7.30;99.90;;;;;;5026911;28;20451;-70
2021/03/13 07:11:03;;;;;;;5.47;1.50;;;7.30;99.90;;;;;;5027307;28;20502;-70
2021/03/13 07:13:36;;;;;;;1.33;0.80;;;7.40;99.90;;;;;;5006820;28;20448;-70
2021/03/13 07:16:21;;;;;;;0.93;0.70;;;7.40;99.90;;;;;;5027338;28;20455;-70
2021/03/13 07:18:48;;;;;;;0.60;0.60;;;7.40;99.90;;;;;;5029751;28;20923;-71
2021/03/13 07:21:14;;;;;;;2.50;0.77;;;7.40;99.90;;;;;;5014746;28;20443;-70
2021/03/13 07:23:48;;;;;;;0.80;0.60;;;7.40;99.90;;;;;;5014982;28;20514;-70
2021/03/13 07:26:15;;;;;;;1.50;0.80;;;7.40;99.90;;;;;;5028369;28;20506;-69
2021/03/13 07:28:43;;;;;;;1.13;0.60;;;7.40;99.90;;;;;;4988389;28;20449;-70
2021/03/13 07:31:10;;;;;;;1.63;0.97;;;7.40;99.90;;;;;;5029016;28;20988;-70
2021/03/13 07:33:40;;;;;;;1.30;1.00;;;7.50;99.90;;;;;;5051418;28;20451;-69
2021/03/13 07:36:26;;;;;;;1.10;1.00;;;7.50;99.90;;;;;;5049452;28;20466;-71
2021/03/13 07:38:58;;;;;;;1.03;0.80;;;7.50;99.90;;;;;;4983479;28;20452;-68
2021/03/13 07:41:25;;;;;;;1.27;1.17;;;7.50;99.90;;;;;;5031711;28;20942;-70
2021/03/13 07:43:52;;;;;;;1.47;1.03;;;7.60;99.90;;;;;;5031442;28;20479;-69
2021/03/13 07:46:20;;;;;;;1.37;0.50;;;7.60;99.90;;;;;;5030913;28;20464;-71
2021/03/13 07:48:47;;;;;;;1.37;0.60;;;7.60;99.90;;;;;;5014425;28;20456;-69
2021/03/13 07:51:13;;;;;;;1.97;0.67;;;7.60;99.90;;;;;;5013564;28;20458;-70
2021/03/13 07:53:40;;;;;;;1.20;1.10;;;7.60;99.90;;;;;;4998083;28;20835;-70
2021/03/13 07:56:12;;;;;;;0.70;0.70;;;7.60;99.90;;;;;;4998159;28;21027;-70
2021/03/13 07:58:40;;;;;;;1.93;0.60;;;7.70;99.90;;;;;;5014555;28;20511;-70
2021/03/13 08:01:06;;;;;;;0.50;0.50;;;7.70;99.90;;;;;;5029818;28;20452;-70
2021/03/13 08:03:35;;;;;;;1.20;1.10;;;7.70;99.90;;;;;;5013441;28;20459;-71
2021/03/13 08:06:02;;;;;;;0.50;0.50;;;7.70;99.90;;;;;;5029528;28;20558;-71
2021/03/13 08:08:36;;;;;;;0.90;0.83;;;7.70;99.90;;;;;;5013965;28;20462;-70
2021/03/13 08:11:03;;;;;;;0.70;0.70;;;7.70;99.90;;;;;;5027311;28;20452;-69
2021/03/13 08:13:29;;;;;;;0.87;0.60;;;7.80;99.90;;;;;;5010205;28;20444;-70
2021/03/13 08:16:09;;;;;;;0.93;0.40;;;7.80;99.90;;;;;;5027712;28;20448;-70
2021/03/13 08:18:51;;;;;;;0.50;0.50;;;7.80;99.90;;;;;;5028632;28;20209;-70
2021/03/13 08:21:20;;;;;;;1.00;0.53;;;7.80;99.90;;;;;;5013648;28;20873;-70
2021/03/13 08:23:46;;;;;;;2.73;0.60;;;7.80;99.90;;;;;;5035555;28;20537;-68
2021/03/13 08:26:12;;;;;;;1.63;1.17;;;7.80;99.90;;;;;;5013466;28;20578;-69
2021/03/13 08:28:56;;;;;;;1.03;0.90;;;7.90;99.90;;;;;;5012505;28;20460;-71
2021/03/13 08:31:21;;;;;;;0.80;0.73;;;7.90;99.90;;;;;;5006528;28;20220;-70
2021/03/13 08:34:11;;;;;;;2.20;1.13;;;7.90;99.90;;;;;;5024561;28;20456;-69
2021/03/13 08:36:45;;;;;;;2.00;1.37;;;7.90;99.90;;;;;;5010223;28;20696;-70
2021/03/13 08:39:13;;;;;;;1.73;0.80;;;7.90;99.90;;;;;;5006328;28;21101;-71
2021/03/13 08:41:42;;;;;;;2.50;0.97;;;7.90;99.90;;;;;;4991683;28;20451;-69
2021/03/13 08:44:11;;;;;;;0.77;0.67;;;7.90;99.90;;;;;;5027377;28;20487;-69
2021/03/13 08:46:44;;;;;;;1.83;0.73;;;7.90;99.90;;;;;;5009078;28;20474;-69
2021/03/13 08:49:29;;;;;;;0.80;0.70;;;7.90;99.90;;;;;;5017841;28;20503;-68
2021/03/13 08:52:07;;;;;;;0.53;0.53;;;8.00;99.90;;;;;;5023792;28;21208;-68
2021/03/13 08:54:54;;;;;;;0.93;0.63;;;8.00;99.90;;;;;;5030110;28;20459;-68
2021/03/13 08:57:25;;;;;;;0.53;0.50;;;8.10;99.90;;;;;;5030022;28;20463;-70
2021/03/13 08:59:53;;;;;;;0.50;0.40;;;8.10;99.90;;;;;;5029763;28;20802;-69
2021/03/13 09:02:21;;;;;;;0.40;0.30;;;8.10;99.90;;;;;;5029013;28;21013;-69
2021/03/13 09:04:50;;;;;;;1.33;0.53;;;8.10;99.90;;;;;;5013315;28;20467;-68
2021/03/13 09:07:18;;;;;;;0.70;0.60;;;8.10;99.90;;;;;;4996872;28;20542;-68
2021/03/13 09:09:44;;;;;;;2.60;1.00;;;8.20;99.90;;;;;;5003605;28;20469;-68
2021/03/13 09:12:13;;;;;;;1.40;1.30;;;8.20;99.90;;;;;;5004499;28;20460;-69
2021/03/13 09:14:44;;;;;;;5.27;3.20;;;8.20;99.90;;;;;;4999506;28;20313;-69
2021/03/13 09:17:14;;;;;;;8.10;5.13;;;8.30;99.90;;;;;;5011863;28;20457;-69
2021/03/13 09:19:41;;;;;;;11.80;8.50;;;8.30;99.90;;;;;;5029138;28;20460;-68
2021/03/13 09:22:26;;;;;;;14.23;8.90;;;8.30;99.90;;;;;;5002367;28;20496;-68
2021/03/13 09:25:05;;;;;;;6.93;5.53;;;8.30;99.90;;;;;;5027792;28;20531;-68
2021/03/13 09:27:37;;;;;;;1.27;1.27;;;8.40;99.90;;;;;;4992633;28;20480;-69
2021/03/13 09:30:06;;;;;;;1.40;1.20;;;8.40;99.90;;;;;;4997245;28;20459;-69
2021/03/13 09:32:32;;;;;;;18.37;11.80;;;8.50;99.90;;;;;;5006452;28;20494;-69
2021/03/13 09:34:58;;;;;;;15.10;11.03;;;8.40;99.90;;;;;;5025753;28;20500;-70
2021/03/13 09:37:29;;;;;;;8.87;6.53;;;8.50;99.90;;;;;;5010169;28;20220;-70
2021/03/13 09:40:01;;;;;;;3.87;3.47;;;8.50;99.90;;;;;;5007096;28;21036;-70
2021/03/13 09:42:28;;;;;;;4.60;4.10;;;8.50;99.90;;;;;;5026057;28;20444;-71
2021/03/13 09:44:58;;;;;;;4.23;3.00;;;8.60;99.90;;;;;;5014360;28;20444;-70
2021/03/13 09:47:34;;;;;;;7.23;1.73;;;8.60;99.90;;;;;;5011857;28;20452;-70
2021/03/13 09:50:04;;;;;;;4.37;2.60;;;8.60;99.90;;;;;;5029374;28;20458;-69
2021/03/13 09:52:33;;;;;;;11.93;6.37;;;8.60;99.90;;;;;;5021610;28;20447;-70
2021/03/13 09:55:08;;;;;;;50.73;22.73;;;8.60;99.90;;;;;;5025753;28;20463;-68
2021/03/13 09:57:35;;;;;;;19.33;10.60;;;8.60;99.90;;;;;;4988692;28;20470;-69
2021/03/13 10:00:03;;;;;;;6.60;3.40;;;8.60;99.90;;;;;;5004290;28;20456;-71
2021/03/13 10:02:31;;;;;;;2.60;2.40;;;8.60;99.90;;;;;;5019345;28;21022;-70
2021/03/13 10:04:57;;;;;;;9.63;4.40;;;8.60;99.90;;;;;;5006743;28;20464;-70
2021/03/13 10:07:23;;;;;;;11.47;7.97;;;8.60;99.90;;;;;;4993259;28;20548;-70
2021/03/13 10:10:00;;;;;;;6.90;4.60;;;8.60;99.90;;;;;;4985614;28;20472;-70
2021/03/13 10:12:34;;;;;;;0.40;0.40;;;8.60;99.90;;;;;;5003270;28;20460;-70
2021/03/13 10:15:27;;;;;;;0.90;0.47;;;8.50;99.90;;;;;;5006494;28;20459;-70
2021/03/13 10:18:03;;;;;;;1.33;1.10;;;8.40;99.90;;;;;;5015021;28;20594;-68
2021/03/13 10:20:39;;;;;;;1.07;1.07;;;8.40;99.90;;;;;;5011811;28;20456;-68
2021/03/13 10:23:11;;;;;;;1.93;0.70;;;8.30;99.90;;;;;;5010946;28;20453;-69
2021/03/13 10:25:39;;;;;;;1.43;0.80;;;8.20;99.90;;;;;;5025713;28;20475;-68
2021/03/13 10:28:14;;;;;;;0.90;0.90;;;8.20;99.90;;;;;;5028208;28;20958;-70
2021/03/13 10:30:42;;;;;;;1.37;1.23;;;8.10;99.90;;;;;;5007740;28;20510;-70
2021/03/13 10:33:09;;;;;;;1.57;0.80;;;8.10;99.90;;;;;;5019735;28;20464;-70
2021/03/13 10:35:35;;;;;;;0.50;0.50;;;8.10;99.90;;;;;;5021979;28;20506;-70
2021/03/13 10:38:14;;;;;;;2.30;0.90;;;8.00;99.90;;;;;;5021568;28;20516;-71
2021/03/13 10:40:47;;;;;;;0.57;0.50;;;7.90;99.90;;;;;;5020833;28;20456;-70
2021/03/13 10:43:22;;;;;;;0.83;0.53;;;7.80;99.90;;;;;;4988618;28;20479;-69
2021/03/13 10:45:57;;;;;;;0.70;0.40;;;7.80;99.90;;;;;;5028700;28;20515;-70
2021/03/13 10:48:30;;;;;;;0.40;0.33;;;7.60;99.90;;;;;;5021259;28;20458;-69
2021/03/13 10:50:56;;;;;;;0.40;0.30;;;7.40;99.90;;;;;;5005770;28;20510;-70
2021/03/13 10:53:37;;;;;;;1.40;1.00;;;7.40;99.90;;;;;;5015097;28;20541;-70
2021/03/13 10:56:09;;;;;;;1.47;0.53;;;7.40;99.90;;;;;;5020826;28;20533;-69
2021/03/13 10:58:36;;;;;;;0.50;0.50;;;7.30;99.90;;;;;;4983780;28;20996;-68
2021/03/13 11:01:07;;;;;;;1.50;1.23;;;7.20;99.90;;;;;;4996238;28;20468;-68
2021/03/13 11:03:34;;;;;;;5.90;2.13;;;7.20;99.90;;;;;;5003444;28;20454;-70
2021/03/13 11:06:00;;;;;;;1.63;1.53;;;7.10;99.90;;;;;;5008532;28;21019;-69
2021/03/13 11:08:26;;;;;;;2.47;1.50;;;7.10;99.90;;;;;;4992318;28;20459;-71
2021/03/13 11:10:54;;;;;;;1.67;1.50;;;7.10;99.90;;;;;;5020369;28;20451;-68
2021/03/13 11:13:21;;;;;;;1.07;1.00;;;7.10;99.90;;;;;;4983762;28;20452;-70
2021/03/13 11:15:48;;;;;;;1.00;1.00;;;7.00;99.90;;;;;;5015808;28;20452;-68
2021/03/13 11:18:14;;;;;;;0.73;0.60;;;7.00;99.90;;;;;;4999945;28;20452;-69
2021/03/13 11:20:41;;;;;;;0.63;0.63;;;7.00;99.90;;;;;;4997211;28;20443;-71
2021/03/13 11:23:07;;;;;;;0.73;0.40;;;7.00;99.90;;;;;;5019938;28;20459;-69
2021/03/13 11:25:33;;;;;;;0.43;0.40;;;7.10;99.90;;;;;;5024736;28;20475;-69
2021/03/13 11:27:59;;;;;;;0.40;0.40;;;7.00;99.90;;;;;;4984704;28;20495;-69
2021/03/13 11:30:25;;;;;;;0.70;0.47;;;7.00;99.90;;;;;;5015210;28;20768;-69
2021/03/13 11:32:51;;;;;;;0.50;0.50;;;7.00;99.90;;;;;;5003971;28;20465;-70
2021/03/13 11:35:19;;;;;;;1.27;0.33;;;7.00;99.90;;;;;;4998599;28;20456;-70
2021/03/13 11:37:45;;;;;;;0.70;0.70;;;7.00;99.90;;;;;;4998979;28;21032;-70
2021/03/13 11:40:11;;;;;;;0.50;0.50;;;6.90;99.90;;;;;;5022271;28;21013;-69
2021/03/13 11:42:37;;;;;;;0.47;0.37;;;6.80;99.90;;;;;;5024653;28;20447;-69
2021/03/13 11:45:05;;;;;;;0.93;0.60;;;6.90;99.90;;;;;;4999160;28;20855;-70
2021/03/13 11:47:31;;;;;;;0.80;0.80;;;6.70;99.90;;;;;;5014245;28;20228;-70
2021/03/13 11:49:57;;;;;;;1.27;0.70;;;6.70;99.90;;;;;;5014072;28;20460;-70
2021/03/13 11:52:22;;;;;;;0.60;0.53;;;6.70;99.90;;;;;;4999481;28;20229;-70
2021/03/13 11:54:50;;;;;;;0.60;0.43;;;6.70;99.90;;;;;;5020157;28;20225;-69
2021/03/13 11:57:16;;;;;;;0.60;0.60;;;6.70;99.90;;;;;;4996914;28;20221;-68
2021/03/13 11:59:46;;;;;;;0.67;0.53;;;6.70;99.90;;;;;;5014870;28;20483;-68
2021/03/13 12:02:13;;;;;;;1.00;0.43;;;6.60;99.90;;;;;;4982895;28;20484;-68
2021/03/13 12:04:39;;;;;;;0.30;0.20;;;6.60;99.90;;;;;;5025716;28;20463;-70
2021/03/13 12:07:05;;;;;;;0.40;0.37;;;6.60;99.90;;;;;;5018104;28;20544;-69
2021/03/13 12:09:30;;;;;;;0.50;0.50;;;6.70;99.90;;;;;;5006481;28;21025;-70
2021/03/13 12:11:56;;;;;;;1.47;0.40;;;6.70;99.90;;;;;;4995519;28;20460;-70
2021/03/13 12:14:22;;;;;;;1.40;0.30;;;6.80;99.90;;;;;;4991401;28;20221;-69
2021/03/13 12:16:48;;;;;;;0.53;0.40;;;7.00;99.90;;;;;;4992663;28;20247;-70
2021/03/13 12:19:13;;;;;;;0.97;0.50;;;7.10;99.90;;;;;;5007604;28;20300;-68
2021/03/13 12:21:39;;;;;;;1.10;0.33;;;7.20;99.90;;;;;;5026149;28;20248;-68
2021/03/13 12:24:07;;;;;;;0.87;0.47;;;7.30;99.90;;;;;;5019985;28;20271;-68
2021/03/13 12:26:33;;;;;;;0.43;0.40;;;7.50;99.90;;;;;;5015758;28;20482;-71
2021/03/13 12:28:59;;;;;;;7.73;2.20;;;7.60;99.90;;;;;;5010562;28;20524;-68
2021/03/13 12:31:25;;;;;;;37.93;12.50;;;7.70;99.90;;;;;;5001371;28;20535;-69
2021/03/13 12:33:50;;;;;;;88.50;26.83;;;7.80;99.90;;;;;;5029687;28;20251;-68
2021/03/13 12:36:16;;;;;;;117.80;39.87;;;7.90;99.90;;;;;;5011751;28;20209;-70
2021/03/13 12:38:42;;;;;;;116.17;41.70;;;7.90;99.90;;;;;;4996440;28;20229;-68
2021/03/13 12:41:08;;;;;;;70.77;27.60;;;8.00;99.90;;;;;;4995332;28;20232;-68
2021/03/13 12:43:34;;;;;;;30.77;14.00;;;8.00;99.90;;;;;;5029786;28;20221;-68
2021/03/13 12:46:02;;;;;;;23.50;12.77;;;8.10;99.90;;;;;;5029673;28;22184;-68
2021/03/13 12:48:29;;;;;;;25.57;12.83;;;8.20;99.90;;;;;;5022022;28;20543;-68
2021/03/13 12:50:55;;;;;;;17.07;8.17;;;8.30;99.90;;;;;;5011640;28;20993;-71
2021/03/13 12:53:21;;;;;;;3.93;3.63;;;8.40;99.90;;;;;;5013116;28;20513;-68
2021/03/13 12:55:47;;;;;;;3.33;1.43;;;8.60;99.90;;;;;;5029887;28;20452;-69
2021/03/13 12:58:12;;;;;;;2.67;1.23;;;8.60;99.90;;;;;;5029392;28;20464;-69
2021/03/13 13:00:40;;;;;;;1.37;1.27;;;8.60;99.90;;;;;;5031839;28;20224;-69
2021/03/13 13:03:07;;;;;;;1.63;1.53;;;8.70;99.90;;;;;;5000473;28;20356;-68
2021/03/13 13:05:32;;;;;;;3.13;1.60;;;8.80;99.90;;;;;;4987114;28;20475;-70
2021/03/13 13:07:58;;;;;;;1.70;1.37;;;8.90;99.90;;;;;;4984351;28;20606;-68